sensor_id;sensor_type;location;lat;lon;timestamp;pressure;altitude;pressure_sealevel;temperature;humidity
17764;BME280;22245;52.832;13.816;2024-01-10T00:03:02;103371.56;;;-9.69;75.42
17764;BME280;22245;52.832;13.816;2024-01-10T00:06:23;103370.22;;;-9.80;75.65
17764;BME280;22245;52.832;13.816;2024-01-10T00:09:45;103368.34;;;-9.84;75.27
17764;BME280;22245;52.832;13.816;2024-01-10T00:13:08;103366.25;;;-9.93;75.39
17764;BME280;22245;52.832;13.816;2024-01-10T00:16:29;103362.03;;;-9.91;75.54
17764;BME280;22245;52.832;13.816;2024-01-10T00:19:51;103361.50;;;-9.84;74.83
17764;BME280;22245;52.832;13.816;2024-01-10T00:23:13;103359.47;;;-9.91;75.20
17764;BME280;22245;52.832;13.816;2024-01-10T00:26:34;103367.97;;;-9.94;75.88
17764;BME280;22245;52.832;13.816;2024-01-10T00:29:57;103366.34;;;-9.92;75.92
17764;BME280;22245;52.832;13.816;2024-01-10T00:33:18;103363.50;;;-9.98;76.12
17764;BME280;22245;52.832;13.816;2024-01-10T00:36:40;103375.66;;;-10.15;76.79
17764;BME280;22245;52.832;13.816;2024-01-10T00:40:01;103375.16;;;-10.06;76.92
17764;BME280;22245;52.832;13.816;2024-01-10T00:43:23;103381.53;;;-9.98;76.26
17764;BME280;22245;52.832;13.816;2024-01-10T00:46:45;103363.53;;;-9.96;76.26
17764;BME280;22245;52.832;13.816;2024-01-10T00:50:07;103358.94;;;-10.04;76.44
17764;BME280;22245;52.832;13.816;2024-01-10T00:53:29;103365.19;;;-9.98;76.49
17764;BME280;22245;52.832;13.816;2024-01-10T00:56:51;103359.97;;;-10.00;76.84
17764;BME280;22245;52.832;13.816;2024-01-10T01:00:13;103354.06;;;-9.97;77.17
17764;BME280;22245;52.832;13.816;2024-01-10T01:03:36;103348.91;;;-9.97;77.34
17764;BME280;22245;52.832;13.816;2024-01-10T01:06:58;103354.31;;;-9.91;77.87
17764;BME280;22245;52.832;13.816;2024-01-10T01:10:19;103353.56;;;-9.89;78.24
17764;BME280;22245;52.832;13.816;2024-01-10T01:13:41;103351.97;;;-9.85;78.17
17764;BME280;22245;52.832;13.816;2024-01-10T01:17:03;103362.44;;;-9.82;78.15
17764;BME280;22245;52.832;13.816;2024-01-10T01:20:25;103353.09;;;-9.80;78.19
17764;BME280;22245;52.832;13.816;2024-01-10T01:23:50;103363.53;;;-9.77;77.99
17764;BME280;22245;52.832;13.816;2024-01-10T01:27:12;103365.06;;;-9.80;78.59
17764;BME280;22245;52.832;13.816;2024-01-10T01:30:33;103364.47;;;-9.75;78.58
17764;BME280;22245;52.832;13.816;2024-01-10T01:33:54;103367.28;;;-9.68;78.70
17764;BME280;22245;52.832;13.816;2024-01-10T01:37:17;103370.13;;;-9.62;77.82
17764;BME280;22245;52.832;13.816;2024-01-10T01:40:38;103357.19;;;-9.64;77.47
17764;BME280;22245;52.832;13.816;2024-01-10T01:44:00;103361.41;;;-9.66;77.61
17764;BME280;22245;52.832;13.816;2024-01-10T01:47:22;103362.19;;;-9.67;77.16
17764;BME280;22245;52.832;13.816;2024-01-10T01:50:44;103365.75;;;-9.65;77.25
17764;BME280;22245;52.832;13.816;2024-01-10T01:54:09;103358.03;;;-9.63;77.70
17764;BME280;22245;52.832;13.816;2024-01-10T01:57:32;103359.75;;;-9.64;77.50
17764;BME280;22245;52.832;13.816;2024-01-10T02:00:55;103351.94;;;-9.65;77.60
17764;BME280;22245;52.832;13.816;2024-01-10T02:04:17;103352.88;;;-9.63;77.70
17764;BME280;22245;52.832;13.816;2024-01-10T02:07:39;103350.19;;;-9.66;78.25
17764;BME280;22245;52.832;13.816;2024-01-10T02:11:02;103345.91;;;-9.66;78.27
17764;BME280;22245;52.832;13.816;2024-01-10T02:14:24;103342.75;;;-9.58;78.30
17764;BME280;22245;52.832;13.816;2024-01-10T02:17:46;103340.09;;;-9.60;77.93
17764;BME280;22245;52.832;13.816;2024-01-10T02:21:08;103335.06;;;-9.57;78.21
17764;BME280;22245;52.832;13.816;2024-01-10T02:24:29;103334.94;;;-9.60;78.35
17764;BME280;22245;52.832;13.816;2024-01-10T02:27:52;103345.34;;;-9.58;78.47
17764;BME280;22245;52.832;13.816;2024-01-10T02:31:14;103344.28;;;-9.64;78.73
17764;BME280;22245;52.832;13.816;2024-01-10T02:34:35;103345.38;;;-9.57;78.26
17764;BME280;22245;52.832;13.816;2024-01-10T02:37:57;103346.22;;;-9.58;78.09
17764;BME280;22245;52.832;13.816;2024-01-10T02:41:19;103338.53;;;-9.56;77.71
17764;BME280;22245;52.832;13.816;2024-01-10T02:44:43;103337.97;;;-9.70;77.17
17764;BME280;22245;52.832;13.816;2024-01-10T02:48:05;103343.75;;;-9.76;77.96
17764;BME280;22245;52.832;13.816;2024-01-10T02:51:27;103356.34;;;-9.84;77.55
17764;BME280;22245;52.832;13.816;2024-01-10T02:54:50;103353.94;;;-9.79;76.93
17764;BME280;22245;52.832;13.816;2024-01-10T02:58:11;103348.28;;;-9.70;76.29
17764;BME280;22245;52.832;13.816;2024-01-10T03:01:34;103344.81;;;-9.71;76.88
17764;BME280;22245;52.832;13.816;2024-01-10T03:04:55;103346.53;;;-9.71;76.98
17764;BME280;22245;52.832;13.816;2024-01-10T03:08:17;103336.84;;;-9.77;77.21
17764;BME280;22245;52.832;13.816;2024-01-10T03:11:39;103329.03;;;-10.00;77.96
17764;BME280;22245;52.832;13.816;2024-01-10T03:15:00;103328.84;;;-10.05;77.31
17764;BME280;22245;52.832;13.816;2024-01-10T03:18:23;103324.50;;;-10.06;77.57
17764;BME280;22245;52.832;13.816;2024-01-10T03:21:45;103327.19;;;-10.03;77.16
17764;BME280;22245;52.832;13.816;2024-01-10T03:25:07;103317.56;;;-10.07;78.00
17764;BME280;22245;52.832;13.816;2024-01-10T03:28:28;103321.22;;;-10.01;76.71
17764;BME280;22245;52.832;13.816;2024-01-10T03:31:49;103313.44;;;-10.03;76.60
17764;BME280;22245;52.832;13.816;2024-01-10T03:35:13;103305.94;;;-10.18;77.14
17764;BME280;22245;52.832;13.816;2024-01-10T03:38:35;103306.25;;;-10.10;76.68
17764;BME280;22245;52.832;13.816;2024-01-10T03:41:56;103307.50;;;-10.22;76.70
17764;BME280;22245;52.832;13.816;2024-01-10T03:45:18;103310.00;;;-10.23;76.25
17764;BME280;22245;52.832;13.816;2024-01-10T03:48:43;103309.84;;;-10.26;76.69
17764;BME280;22245;52.832;13.816;2024-01-10T03:52:10;103305.81;;;-10.21;76.52
17764;BME280;22245;52.832;13.816;2024-01-10T03:55:32;103305.13;;;-10.17;75.86
17764;BME280;22245;52.832;13.816;2024-01-10T03:58:53;103305.16;;;-10.15;75.63
17764;BME280;22245;52.832;13.816;2024-01-10T04:02:15;103300.00;;;-10.15;75.42
17764;BME280;22245;52.832;13.816;2024-01-10T04:05:37;103297.41;;;-10.17;76.02
17764;BME280;22245;52.832;13.816;2024-01-10T04:09:00;103296.13;;;-10.27;76.62
17764;BME280;22245;52.832;13.816;2024-01-10T04:12:22;103303.72;;;-10.30;76.66
17764;BME280;22245;52.832;13.816;2024-01-10T04:15:43;103299.50;;;-10.28;76.50
17764;BME280;22245;52.832;13.816;2024-01-10T04:19:05;103295.44;;;-10.23;76.49
17764;BME280;22245;52.832;13.816;2024-01-10T04:22:26;103293.66;;;-10.24;77.19
17764;BME280;22245;52.832;13.816;2024-01-10T04:25:49;103295.69;;;-10.17;77.13
17764;BME280;22245;52.832;13.816;2024-01-10T04:29:11;103300.00;;;-10.15;77.02
17764;BME280;22245;52.832;13.816;2024-01-10T04:32:33;103305.31;;;-10.12;77.85
17764;BME280;22245;52.832;13.816;2024-01-10T04:35:55;103297.66;;;-10.11;77.31
17764;BME280;22245;52.832;13.816;2024-01-10T04:39:16;103292.63;;;-10.08;77.32
17764;BME280;22245;52.832;13.816;2024-01-10T04:42:40;103295.19;;;-10.08;78.05
17764;BME280;22245;52.832;13.816;2024-01-10T04:46:01;103294.44;;;-10.05;78.00
17764;BME280;22245;52.832;13.816;2024-01-10T04:49:23;103290.16;;;-10.05;78.25
17764;BME280;22245;52.832;13.816;2024-01-10T04:52:44;103286.78;;;-10.04;78.26
17764;BME280;22245;52.832;13.816;2024-01-10T04:56:06;103284.28;;;-10.02;78.28
17764;BME280;22245;52.832;13.816;2024-01-10T04:59:29;103287.84;;;-9.98;77.51
17764;BME280;22245;52.832;13.816;2024-01-10T05:02:50;103274.81;;;-10.01;77.73
17764;BME280;22245;52.832;13.816;2024-01-10T05:06:14;103279.38;;;-9.96;77.59
17764;BME280;22245;52.832;13.816;2024-01-10T05:09:36;103268.22;;;-9.95;77.25
17764;BME280;22245;52.832;13.816;2024-01-10T05:12:57;103264.72;;;-9.97;77.37
17764;BME280;22245;52.832;13.816;2024-01-10T05:16:20;103266.41;;;-9.97;77.37
17764;BME280;22245;52.832;13.816;2024-01-10T05:19:41;103260.38;;;-9.98;77.21
17764;BME280;22245;52.832;13.816;2024-01-10T05:23:03;103259.22;;;-10.05;78.43
17764;BME280;22245;52.832;13.816;2024-01-10T05:26:26;103257.03;;;-9.95;77.72
17764;BME280;22245;52.832;13.816;2024-01-10T05:29:47;103257.97;;;-9.93;77.60
17764;BME280;22245;52.832;13.816;2024-01-10T05:33:10;103258.75;;;-9.96;77.57
17764;BME280;22245;52.832;13.816;2024-01-10T05:36:32;103263.69;;;-10.00;77.72
17764;BME280;22245;52.832;13.816;2024-01-10T05:39:54;103250.59;;;-10.05;77.08
17764;BME280;22245;52.832;13.816;2024-01-10T05:43:15;103255.34;;;-10.16;77.23
17764;BME280;22245;52.832;13.816;2024-01-10T05:46:37;103265.41;;;-10.22;76.86
17764;BME280;22245;52.832;13.816;2024-01-10T05:50:00;103260.91;;;-10.26;76.38
17764;BME280;22245;52.832;13.816;2024-01-10T05:53:23;103267.69;;;-10.28;76.65
17764;BME280;22245;52.832;13.816;2024-01-10T05:56:45;103260.09;;;-10.25;76.35
17764;BME280;22245;52.832;13.816;2024-01-10T06:00:08;103260.03;;;-10.27;76.29
17764;BME280;22245;52.832;13.816;2024-01-10T06:03:30;103268.03;;;-10.21;76.17
17764;BME280;22245;52.832;13.816;2024-01-10T06:06:52;103255.38;;;-10.36;75.78
17764;BME280;22245;52.832;13.816;2024-01-10T06:10:14;103263.47;;;-10.26;75.97
17764;BME280;22245;52.832;13.816;2024-01-10T06:13:36;103248.16;;;-10.23;75.38
17764;BME280;22245;52.832;13.816;2024-01-10T06:17:13;103253.28;;;-10.23;75.28
17764;BME280;22245;52.832;13.816;2024-01-10T06:20:34;103261.72;;;-10.27;75.74
17764;BME280;22245;52.832;13.816;2024-01-10T06:23:59;103263.34;;;-10.29;76.15
17764;BME280;22245;52.832;13.816;2024-01-10T06:27:21;103259.22;;;-10.26;76.27
17764;BME280;22245;52.832;13.816;2024-01-10T06:30:43;103260.03;;;-10.27;76.64
17764;BME280;22245;52.832;13.816;2024-01-10T06:34:05;103256.56;;;-10.27;77.02
17764;BME280;22245;52.832;13.816;2024-01-10T06:37:27;103250.66;;;-10.25;77.34
17764;BME280;22245;52.832;13.816;2024-01-10T06:40:50;103258.66;;;-10.19;78.70
17764;BME280;22245;52.832;13.816;2024-01-10T06:44:12;103259.59;;;-10.17;79.74
17764;BME280;22245;52.832;13.816;2024-01-10T06:47:34;103257.38;;;-10.07;78.71
17764;BME280;22245;52.832;13.816;2024-01-10T06:50:56;103249.13;;;-10.00;78.68
17764;BME280;22245;52.832;13.816;2024-01-10T06:54:17;103253.59;;;-9.96;78.29
17764;BME280;22245;52.832;13.816;2024-01-10T06:57:40;103256.97;;;-9.97;77.92
17764;BME280;22245;52.832;13.816;2024-01-10T07:01:02;103254.31;;;-9.98;77.32
17764;BME280;22245;52.832;13.816;2024-01-10T07:04:25;103259.94;;;-10.09;77.14
17764;BME280;22245;52.832;13.816;2024-01-10T07:07:48;103257.84;;;-10.18;77.07
17764;BME280;22245;52.832;13.816;2024-01-10T07:11:10;103244.13;;;-10.17;77.81
17764;BME280;22245;52.832;13.816;2024-01-10T07:14:34;103246.09;;;-10.11;77.13
17764;BME280;22245;52.832;13.816;2024-01-10T07:17:55;103244.78;;;-10.22;77.08
17764;BME280;22245;52.832;13.816;2024-01-10T07:21:17;103247.75;;;-10.33;76.12
17764;BME280;22245;52.832;13.816;2024-01-10T07:24:40;103251.16;;;-10.34;76.09
17764;BME280;22245;52.832;13.816;2024-01-10T07:28:01;103253.13;;;-10.28;76.17
17764;BME280;22245;52.832;13.816;2024-01-10T07:31:24;103256.56;;;-10.27;76.29
17764;BME280;22245;52.832;13.816;2024-01-10T07:34:48;103259.53;;;-10.39;75.35
17764;BME280;22245;52.832;13.816;2024-01-10T07:38:10;103259.84;;;-10.32;75.61
17764;BME280;22245;52.832;13.816;2024-01-10T07:41:31;103262.97;;;-10.39;75.66
17764;BME280;22245;52.832;13.816;2024-01-10T07:44:53;103270.69;;;-10.40;76.08
17764;BME280;22245;52.832;13.816;2024-01-10T07:48:17;103270.13;;;-10.32;75.72
17764;BME280;22245;52.832;13.816;2024-01-10T07:51:39;103277.19;;;-10.27;76.93
17764;BME280;22245;52.832;13.816;2024-01-10T07:55:00;103283.28;;;-10.25;77.43
17764;BME280;22245;52.832;13.816;2024-01-10T07:58:25;103280.84;;;-10.22;77.64
17764;BME280;22245;52.832;13.816;2024-01-10T08:01:54;103282.09;;;-10.12;77.25
17764;BME280;22245;52.832;13.816;2024-01-10T08:05:18;103287.38;;;-10.09;76.59
17764;BME280;22245;52.832;13.816;2024-01-10T08:08:41;103299.53;;;-10.07;76.63
17764;BME280;22245;52.832;13.816;2024-01-10T08:12:03;103292.63;;;-10.08;76.67
17764;BME280;22245;52.832;13.816;2024-01-10T08:15:25;103287.66;;;-10.03;76.91
17764;BME280;22245;52.832;13.816;2024-01-10T08:18:47;103287.84;;;-9.98;76.85
17764;BME280;22245;52.832;13.816;2024-01-10T08:22:10;103284.63;;;-9.93;76.71
17764;BME280;22245;52.832;13.816;2024-01-10T08:25:32;103281.94;;;-9.96;77.64
17764;BME280;22245;52.832;13.816;2024-01-10T08:28:54;103287.78;;;-10.00;77.84
17764;BME280;22245;52.832;13.816;2024-01-10T08:32:17;103292.38;;;-9.93;78.19
17764;BME280;22245;52.832;13.816;2024-01-10T08:35:41;103292.31;;;-9.94;78.01
17764;BME280;22245;52.832;13.816;2024-01-10T08:39:04;103292.41;;;-9.91;77.81
17764;BME280;22245;52.832;13.816;2024-01-10T08:42:27;103300.00;;;-9.75;77.80
17764;BME280;22245;52.832;13.816;2024-01-10T08:45:48;103300.59;;;-9.80;78.40
17764;BME280;22245;52.832;13.816;2024-01-10T08:49:10;103293.56;;;-9.63;77.92
17764;BME280;22245;52.832;13.816;2024-01-10T08:52:32;103299.06;;;-9.54;78.26
17764;BME280;22245;52.832;13.816;2024-01-10T08:55:55;103292.28;;;-9.52;80.52
17764;BME280;22245;52.832;13.816;2024-01-10T08:59:17;103293.63;;;-9.39;80.75
17764;BME280;22245;52.832;13.816;2024-01-10T09:02:39;103294.25;;;-9.23;80.42
17764;BME280;22245;52.832;13.816;2024-01-10T09:06:00;103289.72;;;-9.06;80.28
17764;BME280;22245;52.832;13.816;2024-01-10T09:09:30;103290.00;;;-8.98;79.99
17764;BME280;22245;52.832;13.816;2024-01-10T09:12:53;103296.50;;;-8.85;79.98
17764;BME280;22245;52.832;13.816;2024-01-10T09:16:15;103277.94;;;-8.75;80.07
17764;BME280;22245;52.832;13.816;2024-01-10T09:19:38;103275.72;;;-8.64;80.11
17764;BME280;22245;52.832;13.816;2024-01-10T09:23:01;103276.94;;;-8.54;79.72
17764;BME280;22245;52.832;13.816;2024-01-10T09:26:23;103278.03;;;-8.48;80.19
17764;BME280;22245;52.832;13.816;2024-01-10T09:29:46;103282.72;;;-8.36;80.55
17764;BME280;22245;52.832;13.816;2024-01-10T09:33:07;103263.19;;;-8.27;80.51
17764;BME280;22245;52.832;13.816;2024-01-10T09:36:29;103260.97;;;-8.17;80.57
17764;BME280;22245;52.832;13.816;2024-01-10T09:39:50;103258.72;;;-8.06;80.93
17764;BME280;22245;52.832;13.816;2024-01-10T09:43:12;103253.00;;;-7.97;80.85
17764;BME280;22245;52.832;13.816;2024-01-10T09:46:38;103244.75;;;-7.85;81.22
17764;BME280;22245;52.832;13.816;2024-01-10T09:50:02;103252.91;;;-7.73;80.38
17764;BME280;22245;52.832;13.816;2024-01-10T09:53:25;103248.09;;;-7.60;80.68
17764;BME280;22245;52.832;13.816;2024-01-10T09:56:47;103242.41;;;-7.50;80.80
17764;BME280;22245;52.832;13.816;2024-01-10T10:00:10;103242.81;;;-7.36;80.16
17764;BME280;22245;52.832;13.816;2024-01-10T10:03:36;103243.13;;;-7.25;81.50
17764;BME280;22245;52.832;13.816;2024-01-10T10:06:59;103253.97;;;-7.08;81.19
17764;BME280;22245;52.832;13.816;2024-01-10T10:10:21;103244.91;;;-6.93;82.75
17764;BME280;22245;52.832;13.816;2024-01-10T10:13:43;103254.81;;;-6.78;81.48
17764;BME280;22245;52.832;13.816;2024-01-10T10:17:15;103249.88;;;-6.69;80.93
17764;BME280;22245;52.832;13.816;2024-01-10T10:20:39;103255.47;;;-6.54;81.71
17764;BME280;22245;52.832;13.816;2024-01-10T10:24:01;103252.19;;;-6.48;80.47
17764;BME280;22245;52.832;13.816;2024-01-10T10:27:24;103253.16;;;-6.43;80.59
17764;BME280;22245;52.832;13.816;2024-01-10T10:30:46;103257.56;;;-6.40;79.56
17764;BME280;22245;52.832;13.816;2024-01-10T10:34:09;103260.34;;;-6.32;78.42
17764;BME280;22245;52.832;13.816;2024-01-10T10:37:32;103253.59;;;-6.26;77.28
17764;BME280;22245;52.832;13.816;2024-01-10T10:40:55;103260.63;;;-6.21;76.67
17764;BME280;22245;52.832;13.816;2024-01-10T10:44:18;103264.19;;;-6.18;76.89
17764;BME280;22245;52.832;13.816;2024-01-10T10:47:43;103264.44;;;-6.07;76.88
17764;BME280;22245;52.832;13.816;2024-01-10T10:51:08;103262.03;;;-6.01;77.49
17764;BME280;22245;52.832;13.816;2024-01-10T10:54:33;103252.75;;;-5.89;77.04
17764;BME280;22245;52.832;13.816;2024-01-10T10:57:55;103249.44;;;-5.84;78.24
17764;BME280;22245;52.832;13.816;2024-01-10T11:01:27;103253.09;;;-5.74;78.35
17764;BME280;22245;52.832;13.816;2024-01-10T11:04:50;103246.34;;;-5.67;77.89
17764;BME280;22245;52.832;13.816;2024-01-10T11:08:18;103246.59;;;-5.56;78.10
17764;BME280;22245;52.832;13.816;2024-01-10T11:12:00;103239.84;;;-5.48;77.89
17764;BME280;22245;52.832;13.816;2024-01-10T11:15:42;103233.91;;;-5.42;77.95
17764;BME280;22245;52.832;13.816;2024-01-10T11:19:22;103233.25;;;-5.32;77.91
17764;BME280;22245;52.832;13.816;2024-01-10T11:22:57;103222.97;;;-5.27;78.18
17764;BME280;22245;52.832;13.816;2024-01-10T11:26:24;103212.84;;;-5.15;78.31
17764;BME280;22245;52.832;13.816;2024-01-10T11:29:48;103214.66;;;-5.11;77.31
17764;BME280;22245;52.832;13.816;2024-01-10T11:33:18;103217.38;;;-5.04;76.36
17764;BME280;22245;52.832;13.816;2024-01-10T11:37:09;103201.03;;;-4.99;75.33
17764;BME280;22245;52.832;13.816;2024-01-10T11:40:47;103209.94;;;-4.86;75.21
17764;BME280;22245;52.832;13.816;2024-01-10T11:44:29;103213.63;;;-4.74;73.81
17764;BME280;22245;52.832;13.816;2024-01-10T11:47:53;103201.56;;;-4.69;72.05
17764;BME280;22245;52.832;13.816;2024-01-10T11:51:14;103191.31;;;-4.60;72.00
17764;BME280;22245;52.832;13.816;2024-01-10T11:54:38;103186.28;;;-4.52;72.52
17764;BME280;22245;52.832;13.816;2024-01-10T11:58:08;103188.97;;;-4.47;72.27
17764;BME280;22245;52.832;13.816;2024-01-10T12:01:30;103182.13;;;-4.42;71.21
17764;BME280;22245;52.832;13.816;2024-01-10T12:04:53;103190.88;;;-4.37;69.67
17764;BME280;22245;52.832;13.816;2024-01-10T12:08:15;103182.34;;;-4.27;69.62
17764;BME280;22245;52.832;13.816;2024-01-10T12:11:39;103171.22;;;-4.18;68.80
17764;BME280;22245;52.832;13.816;2024-01-10T12:15:01;103173.97;;;-4.10;69.19
17764;BME280;22245;52.832;13.816;2024-01-10T12:18:23;103164.50;;;-4.05;67.36
17764;BME280;22245;52.832;13.816;2024-01-10T12:21:46;103172.38;;;-3.99;67.72
17764;BME280;22245;52.832;13.816;2024-01-10T12:25:09;103170.75;;;-3.90;68.27
17764;BME280;22245;52.832;13.816;2024-01-10T12:28:31;103169.09;;;-3.87;68.37
17764;BME280;22245;52.832;13.816;2024-01-10T12:31:53;103162.22;;;-3.80;67.19
17764;BME280;22245;52.832;13.816;2024-01-10T12:35:17;103158.00;;;-3.73;67.69
17764;BME280;22245;52.832;13.816;2024-01-10T12:38:42;103151.09;;;-3.68;67.30
17764;BME280;22245;52.832;13.816;2024-01-10T12:42:04;103150.31;;;-3.63;67.49
17764;BME280;22245;52.832;13.816;2024-01-10T12:45:26;103136.47;;;-3.58;67.54
17764;BME280;22245;52.832;13.816;2024-01-10T12:48:58;103133.94;;;-3.52;67.17
17764;BME280;22245;52.832;13.816;2024-01-10T12:52:21;103133.13;;;-3.50;66.70
17764;BME280;22245;52.832;13.816;2024-01-10T12:55:46;103125.38;;;-3.42;66.42
17764;BME280;22245;52.832;13.816;2024-01-10T12:59:08;103126.34;;;-3.37;65.20
17764;BME280;22245;52.832;13.816;2024-01-10T13:02:31;103120.31;;;-3.32;65.16
17764;BME280;22245;52.832;13.816;2024-01-10T13:05:55;103123.81;;;-3.26;65.01
17764;BME280;22245;52.832;13.816;2024-01-10T13:09:17;103117.78;;;-3.23;65.43
17764;BME280;22245;52.832;13.816;2024-01-10T13:12:41;103121.28;;;-3.21;66.18
17764;BME280;22245;52.832;13.816;2024-01-10T13:16:04;103110.91;;;-3.16;66.32
17764;BME280;22245;52.832;13.816;2024-01-10T13:19:25;103114.38;;;-3.16;66.54
17764;BME280;22245;52.832;13.816;2024-01-10T13:22:47;103112.66;;;-3.15;66.59
17764;BME280;22245;52.832;13.816;2024-01-10T13:26:10;103124.00;;;-3.13;66.79
17764;BME280;22245;52.832;13.816;2024-01-10T13:29:34;103123.09;;;-3.14;67.05
17764;BME280;22245;52.832;13.816;2024-01-10T13:32:57;103119.66;;;-3.11;66.26
17764;BME280;22245;52.832;13.816;2024-01-10T13:36:19;103120.56;;;-3.09;66.81
17764;BME280;22245;52.832;13.816;2024-01-10T13:39:41;103121.44;;;-3.06;66.10
17764;BME280;22245;52.832;13.816;2024-01-10T13:43:03;103131.03;;;-3.03;65.51
17764;BME280;22245;52.832;13.816;2024-01-10T13:46:26;103125.00;;;-3.00;66.23
17764;BME280;22245;52.832;13.816;2024-01-10T13:49:47;103118.06;;;-2.98;66.63
17764;BME280;22245;52.832;13.816;2024-01-10T13:53:09;103114.59;;;-2.97;66.30
17764;BME280;22245;52.832;13.816;2024-01-10T13:56:31;103118.97;;;-2.93;66.18
17764;BME280;22245;52.832;13.816;2024-01-10T13:59:54;103115.50;;;-2.92;65.68
17764;BME280;22245;52.832;13.816;2024-01-10T14:03:17;103109.44;;;-2.89;65.32
17764;BME280;22245;52.832;13.816;2024-01-10T14:06:39;103117.28;;;-2.88;64.65
17764;BME280;22245;52.832;13.816;2024-01-10T14:10:00;103119.91;;;-2.85;65.10
17764;BME280;22245;52.832;13.816;2024-01-10T14:13:24;103107.75;;;-2.83;65.56
17764;BME280;22245;52.832;13.816;2024-01-10T14:16:46;103110.41;;;-2.81;65.05
17764;BME280;22245;52.832;13.816;2024-01-10T14:20:10;103105.22;;;-2.78;65.37
17764;BME280;22245;52.832;13.816;2024-01-10T14:23:33;103103.47;;;-2.79;65.97
17764;BME280;22245;52.832;13.816;2024-01-10T14:26:56;103100.84;;;-2.78;65.13
17764;BME280;22245;52.832;13.816;2024-01-10T14:30:18;103100.88;;;-2.76;65.42
17764;BME280;22245;52.832;13.816;2024-01-10T14:33:40;103104.34;;;-2.76;66.43
17764;BME280;22245;52.832;13.816;2024-01-10T14:37:03;103100.00;;;-2.73;65.81
17764;BME280;22245;52.832;13.816;2024-01-10T14:40:25;103101.75;;;-2.74;66.79
17764;BME280;22245;52.832;13.816;2024-01-10T14:43:46;103104.38;;;-2.74;67.45
17764;BME280;22245;52.832;13.816;2024-01-10T14:47:07;103099.13;;;-2.76;67.94
17764;BME280;22245;52.832;13.816;2024-01-10T14:50:31;103105.22;;;-2.78;67.25
17764;BME280;22245;52.832;13.816;2024-01-10T14:53:55;103106.94;;;-2.79;67.96
17764;BME280;22245;52.832;13.816;2024-01-10T14:57:16;103106.91;;;-2.83;68.35
17764;BME280;22245;52.832;13.816;2024-01-10T15:00:37;103104.25;;;-2.86;68.13
17764;BME280;22245;52.832;13.816;2024-01-10T15:04:01;103099.88;;;-2.89;67.87
17764;BME280;22245;52.832;13.816;2024-01-10T15:07:24;103104.19;;;-2.93;67.59
17764;BME280;22245;52.832;13.816;2024-01-10T15:10:47;103100.69;;;-2.96;66.80
17764;BME280;22245;52.832;13.816;2024-01-10T15:14:08;103105.84;;;-3.02;66.83
17764;BME280;22245;52.832;13.816;2024-01-10T15:17:31;103101.44;;;-3.08;67.10
17764;BME280;22245;52.832;13.816;2024-01-10T15:20:52;103110.06;;;-3.14;66.99
17764;BME280;22245;52.832;13.816;2024-01-10T15:24:14;103112.59;;;-3.20;65.72
17764;BME280;22245;52.832;13.816;2024-01-10T15:27:40;103116.91;;;-3.25;66.06
17764;BME280;22245;52.832;13.816;2024-01-10T15:31:02;103117.72;;;-3.29;66.07
17764;BME280;22245;52.832;13.816;2024-01-10T15:34:23;103108.09;;;-3.35;66.28
17764;BME280;22245;52.832;13.816;2024-01-10T15:37:46;103117.63;;;-3.39;66.85
17764;BME280;22245;52.832;13.816;2024-01-10T15:41:07;103112.31;;;-3.45;67.35
17764;BME280;22245;52.832;13.816;2024-01-10T15:44:32;103107.88;;;-3.55;68.21
17764;BME280;22245;52.832;13.816;2024-01-10T15:47:54;103112.09;;;-3.64;66.96
17764;BME280;22245;52.832;13.816;2024-01-10T15:51:16;103116.34;;;-3.70;66.96
17764;BME280;22245;52.832;13.816;2024-01-10T15:54:37;103109.34;;;-3.76;68.04
17764;BME280;22245;52.832;13.816;2024-01-10T15:57:58;103098.84;;;-3.82;67.81
17764;BME280;22245;52.832;13.816;2024-01-10T16:01:21;103098.75;;;-3.88;67.11
17764;BME280;22245;52.832;13.816;2024-01-10T16:04:43;103108.25;;;-3.95;67.02
17764;BME280;22245;52.832;13.816;2024-01-10T16:08:05;103109.88;;;-4.02;67.11
17764;BME280;22245;52.832;13.816;2024-01-10T16:11:27;103101.94;;;-4.10;66.01
17764;BME280;22245;52.832;13.816;2024-01-10T16:14:50;103106.19;;;-4.16;65.63
17764;BME280;22245;52.832;13.816;2024-01-10T16:18:13;103106.97;;;-4.22;65.67
17764;BME280;22245;52.832;13.816;2024-01-10T16:21:35;103104.25;;;-4.30;66.33
17764;BME280;22245;52.832;13.816;2024-01-10T16:24:56;103099.84;;;-4.34;65.71
17764;BME280;22245;52.832;13.816;2024-01-10T16:28:17;103102.38;;;-4.40;65.52
17764;BME280;22245;52.832;13.816;2024-01-10T16:31:39;103107.47;;;-4.46;66.58
17764;BME280;22245;52.832;13.816;2024-01-10T16:35:02;103107.38;;;-4.53;66.92
17764;BME280;22245;52.832;13.816;2024-01-10T16:38:24;103098.59;;;-4.58;66.62
17764;BME280;22245;52.832;13.816;2024-01-10T16:41:46;103098.50;;;-4.64;66.85
17764;BME280;22245;52.832;13.816;2024-01-10T16:45:08;103096.66;;;-4.71;67.55
17764;BME280;22245;52.832;13.816;2024-01-10T16:48:29;103088.72;;;-4.79;68.20
17764;BME280;22245;52.832;13.816;2024-01-10T16:51:52;103086.94;;;-4.83;68.44
17764;BME280;22245;52.832;13.816;2024-01-10T16:55:14;103087.78;;;-4.86;68.02
17764;BME280;22245;52.832;13.816;2024-01-10T16:58:37;103085.06;;;-4.92;68.58
17764;BME280;22245;52.832;13.816;2024-01-10T17:01:58;103078.88;;;-4.97;68.45
17764;BME280;22245;52.832;13.816;2024-01-10T17:05:21;103075.34;;;-5.02;69.22
17764;BME280;22245;52.832;13.816;2024-01-10T17:08:44;103069.19;;;-5.09;69.73
17764;BME280;22245;52.832;13.816;2024-01-10T17:12:07;103066.44;;;-5.17;70.24
17764;BME280;22245;52.832;13.816;2024-01-10T17:15:28;103068.88;;;-5.25;70.47
17764;BME280;22245;52.832;13.816;2024-01-10T17:18:50;103051.31;;;-5.38;70.81
17764;BME280;22245;52.832;13.816;2024-01-10T17:22:12;103054.72;;;-5.42;71.01
17764;BME280;22245;52.832;13.816;2024-01-10T17:25:35;103050.22;;;-5.49;70.88